Time;durP1;ratioP1;P1;durP2;ratioP2;P2;SDS_P1;SDS_P2;PMS_P1;PMS_P2;Temp;Humidity;BMP_temperature;BMP_pressure;BME280_temperature;BME280_humidity;BME280_pressure;Samples;Min_cycle;Max_cycle;Signal;HPM_P1;HPM_P2
2021/05/17 00:01:16;;;;;;;10.88;6.80;;;;;;;12.05;72.72;99540.00;1699947;83;25626;-74
2021/05/17 00:03:48;;;;;;;7.75;6.58;;;;;;;12.07;72.77;99541.94;1618981;85;27792;-74
2021/05/17 00:06:18;;;;;;;12.18;7.65;;;;;;;12.07;72.68;99533.06;1631099;85;25714;-74
2021/05/17 00:08:46;;;;;;;11.05;6.62;;;;;;;12.07;72.68;99539.77;1672692;84;25626;-74
2021/05/17 00:11:14;;;;;;;8.65;6.75;;;;;;;12.04;72.61;99538.89;1644864;85;26371;-73
2021/05/17 00:13:41;;;;;;;9.70;6.83;;;;;;;12.02;72.72;99541.77;1611814;85;25768;-75
2021/05/17 00:16:09;;;;;;;8.30;6.25;;;;;;;12.01;72.71;99539.31;1615630;85;27616;-74
2021/05/17 00:18:37;;;;;;;7.58;6.30;;;;;;;12.00;72.88;99539.83;1676621;84;25747;-74
2021/05/17 00:21:06;;;;;;;8.05;6.55;;;;;;;11.99;72.88;99533.36;1669657;85;26455;-73
2021/05/17 00:23:33;;;;;;;7.42;6.25;;;;;;;11.97;72.75;99537.61;1644733;85;25717;-74
2021/05/17 00:26:01;;;;;;;8.75;6.55;;;;;;;11.97;72.86;99534.09;1620708;85;25713;-75
2021/05/17 00:28:29;;;;;;;9.18;6.30;;;;;;;11.96;72.96;99535.13;1624400;85;28119;-74
2021/05/17 00:30:56;;;;;;;9.33;6.17;;;;;;;11.94;72.98;99537.20;1694147;83;25701;-74
2021/05/17 00:33:23;;;;;;;8.28;6.60;;;;;;;11.94;73.07;99529.98;1623015;86;25700;-74
2021/05/17 00:35:51;;;;;;;7.87;6.37;;;;;;;11.92;72.96;99532.59;1660345;83;25793;-74
2021/05/17 00:38:20;;;;;;;9.43;7.25;;;;;;;11.89;73.06;99528.48;1668397;84;25917;-74
2021/05/17 00:40:48;;;;;;;8.80;7.12;;;;;;;11.88;73.20;99524.17;1675351;84;28081;-74
2021/05/17 00:43:20;;;;;;;7.92;6.80;;;;;;;11.89;73.23;99530.36;1638502;84;26065;-74
2021/05/17 00:45:48;;;;;;;10.15;7.37;;;;;;;11.86;73.31;99524.91;1699692;83;25845;-74
2021/05/17 00:48:16;;;;;;;11.20;7.00;;;;;;;11.84;73.25;99527.52;1666092;84;25860;-75
2021/05/17 00:50:43;;;;;;;9.45;7.50;;;;;;;11.82;73.30;99529.08;1679395;84;26159;-74
2021/05/17 00:53:11;;;;;;;10.53;7.80;;;;;;;11.79;73.26;99526.83;1644153;85;27418;-75
2021/05/17 00:55:39;;;;;;;10.63;7.33;;;;;;;11.78;73.33;99524.38;1683404;84;25755;-74
2021/05/17 00:58:07;;;;;;;10.40;7.42;;;;;;;11.77;73.37;99530.25;1645836;85;25816;-74
2021/05/17 01:00:34;;;;;;;10.70;7.50;;;;;;;11.76;73.48;99534.51;1622026;85;26302;-75
2021/05/17 01:03:03;;;;;;;10.78;7.80;;;;;;;11.74;73.53;99542.75;1625718;85;25757;-74
2021/05/17 01:05:38;;;;;;;10.93;7.67;;;;;;;11.73;73.61;99537.10;1640344;84;26688;-74
2021/05/17 01:08:13;;;;;;;11.57;7.25;;;;;;;11.70;73.50;99536.19;1686462;84;25785;-73
2021/05/17 01:10:44;;;;;;;8.03;6.95;;;;;;;11.68;73.46;99536.09;1689033;84;26176;-74
2021/05/17 01:13:13;;;;;;;8.55;7.05;;;;;;;11.64;73.49;99528.48;1658919;84;26440;-74
2021/05/17 01:15:41;;;;;;;8.75;6.85;;;;;;;11.63;73.40;99532.73;1614441;84;25724;-73
2021/05/17 01:18:09;;;;;;;8.53;6.83;;;;;;;11.62;73.41;99539.95;1635945;84;27590;-73
2021/05/17 01:20:38;;;;;;;9.78;6.75;;;;;;;11.61;73.55;99546.88;1645251;84;26382;-74
2021/05/17 01:25:55;;;;;;;8.15;7.10;;;;;;;11.56;73.56;99541.34;1659902;84;26359;-73
2021/05/17 01:28:30;;;;;;;8.18;6.47;;;;;;;11.53;73.46;99543.11;1626399;85;25772;-74
2021/05/17 01:31:04;;;;;;;10.28;6.78;;;;;;;11.49;73.65;99548.09;1644308;84;27352;-74
2021/05/17 01:33:42;;;;;;;8.95;7.42;;;;;;;11.48;73.59;99549.66;1658663;85;25689;-74
2021/05/17 01:36:12;;;;;;;9.88;7.45;;;;;;;11.46;73.89;99557.11;1648299;85;25804;-74
2021/05/17 01:38:44;;;;;;;8.03;7.12;;;;;;;11.40;74.12;99549.91;1653944;84;26329;-74
2021/05/17 01:41:14;;;;;;;8.60;7.17;;;;;;;11.33;74.13;99559.87;1636913;84;25716;-75
2021/05/17 01:43:46;;;;;;;12.73;6.80;;;;;;;11.27;74.15;99558.86;1653932;85;27622;-74
2021/05/17 01:46:30;;;;;;;9.18;6.80;;;;;;;11.24;74.34;99566.02;1683535;84;25952;-74
2021/05/17 01:49:00;;;;;;;8.73;6.95;;;;;;;11.22;74.46;99557.38;1657928;84;25758;-73
2021/05/17 01:51:28;;;;;;;7.95;6.87;;;;;;;11.20;74.39;99565.32;1620172;85;25848;-74
2021/05/17 01:53:59;;;;;;;7.90;6.87;;;;;;;11.19;74.33;99562.32;1653594;85;25686;-74
2021/05/17 01:56:27;;;;;;;;;;;;;;;11.17;74.26;99565.23;1687587;84;27460;-74
2021/05/17 01:58:56;;;;;;;8.65;6.95;;;;;;;11.15;74.28;99558.43;1652353;85;25668;-74
2021/05/17 02:01:25;;;;;;;8.43;6.80;;;;;;;11.13;74.31;99561.34;1651068;83;26525;-74
2021/05/17 02:03:52;;;;;;;8.80;6.45;;;;;;;11.13;74.39;99561.34;1668217;85;26454;-74
2021/05/17 02:06:19;;;;;;;8.78;5.92;;;;;;;11.12;73.96;99570.40;1626554;85;25725;-74
2021/05/17 02:08:51;;;;;;;8.48;6.78;;;;;;;11.07;73.62;99568.08;1619234;85;28140;-74
2021/05/17 02:11:25;;;;;;;10.63;7.20;;;;;;;11.03;73.52;99563.67;1696261;84;26449;-74
2021/05/17 02:13:58;;;;;;;11.00;8.65;;;;;;;10.99;73.60;99563.77;1668861;84;25955;-74
2021/05/17 02:16:26;;;;;;;13.15;8.85;;;;;;;10.95;73.40;99560.42;1657409;85;25945;-74
2021/05/17 02:18:53;;;;;;;10.45;8.83;;;;;;;10.84;73.19;99566.73;1637526;84;25758;-74
2021/05/17 02:21:21;;;;;;;10.93;8.38;;;;;;;10.77;73.05;99563.28;1690404;84;27389;-74
2021/05/17 02:23:48;;;;;;;8.38;7.55;;;;;;;10.68;73.01;99571.25;1673549;85;26662;-74
2021/05/17 02:26:16;;;;;;;10.63;7.92;;;;;;;10.62;73.10;99571.27;1651306;84;25677;-73
2021/05/17 02:28:45;;;;;;;6.97;6.28;;;;;;;10.51;73.35;99568.73;1620454;84;25717;-74
2021/05/17 02:31:13;;;;;;;8.38;7.47;;;;;;;10.46;73.14;99567.20;1687289;84;25712;-74
2021/05/17 02:33:41;;;;;;;8.03;7.17;;;;;;;10.40;73.07;99572.06;1687378;84;28087;-75
2021/05/17 02:36:09;;;;;;;8.88;7.62;;;;;;;10.34;73.13;99565.39;1593248;85;25669;-74
2021/05/17 02:38:38;;;;;;;9.85;7.35;;;;;;;10.28;73.18;99568.41;1633928;84;26445;-74
2021/05/17 02:41:07;;;;;;;10.23;8.38;;;;;;;10.24;73.21;99567.18;1679235;85;26919;-74
2021/05/17 02:43:37;;;;;;;11.43;8.53;;;;;;;10.22;73.51;99568.41;1684842;84;25708;-74
2021/05/17 02:46:09;;;;;;;13.78;9.88;;;;;;;10.19;73.75;99566.97;1637172;86;27717;-74
2021/05/17 02:48:44;;;;;;;14.13;10.10;;;;;;;10.19;73.96;99562.12;1637098;84;25884;-73
2021/05/17 02:51:12;;;;;;;14.83;9.23;;;;;;;10.18;74.03;99563.17;1673111;85;25616;-74
2021/05/17 02:53:57;;;;;;;13.62;9.98;;;;;;;10.14;73.82;99568.10;1674170;82;26494;-74
2021/05/17 02:56:37;;;;;;;11.50;9.65;;;;;;;10.12;74.12;99566.16;1656680;84;25688;-74
2021/05/17 02:59:11;;;;;;;11.68;9.45;;;;;;;10.12;74.18;99563.48;1645281;85;28045;-73
2021/05/17 03:01:44;;;;;;;12.93;9.68;;;;;;;10.12;74.41;99570.67;1636560;84;25897;-74
2021/05/17 03:04:16;;;;;;;13.10;9.95;;;;;;;10.17;74.94;99570.88;1690162;84;25743;-74
2021/05/17 03:07:04;;;;;;;11.38;9.08;;;;;;;10.22;75.25;99575.94;1655598;85;25888;-74
2021/05/17 03:09:34;;;;;;;10.10;8.58;;;;;;;10.27;75.51;99580.63;1603744;85;26179;-74
2021/05/17 03:12:03;;;;;;;10.28;8.55;;;;;;;10.28;75.74;99580.44;1663088;84;28142;-74
2021/05/17 03:14:33;;;;;;;10.43;8.40;;;;;;;10.31;75.82;99578.67;1666503;85;26259;-75
2021/05/17 03:17:10;;;;;;;10.32;8.35;;;;;;;10.35;76.04;99581.23;1677198;84;25696;-74
2021/05/17 03:19:38;;;;;;;13.30;8.75;;;;;;;10.38;76.02;99585.34;1608942;85;26142;-74
2021/05/17 03:22:06;;;;;;;9.68;7.97;;;;;;;10.40;76.32;99586.78;1685054;84;26396;-74
2021/05/17 03:24:37;;;;;;;10.75;7.75;;;;;;;10.43;76.37;99593.58;1642740;85;27415;-74
2021/05/17 03:27:21;;;;;;;11.60;8.35;;;;;;;10.42;76.37;99579.37;1646798;84;25710;-74
2021/05/17 03:29:50;;;;;;;11.60;8.95;;;;;;;10.45;76.42;99589.67;1613064;84;25681;-74
2021/05/17 03:32:18;;;;;;;8.53;7.72;;;;;;;10.47;76.42;99583.58;1684907;83;25899;-74
2021/05/17 03:34:45;;;;;;;11.22;9.05;;;;;;;10.53;76.53;99590.77;1656595;84;25630;-74
2021/05/17 03:37:12;;;;;;;9.93;8.35;;;;;;;10.55;76.63;99588.70;1654098;84;27439;-75
2021/05/17 03:39:39;;;;;;;10.03;8.10;;;;;;;10.60;76.59;99585.39;1639890;84;25951;-74
2021/05/17 03:42:06;;;;;;;11.78;9.33;;;;;;;10.66;76.74;99584.03;1678437;83;26016;-74
2021/05/17 03:44:33;;;;;;;10.03;8.83;;;;;;;10.73;76.83;99582.67;1664309;84;26529;-76
2021/05/17 03:47:00;;;;;;;11.48;8.63;;;;;;;10.79;76.86;99583.16;1640418;84;25544;-74
2021/05/17 03:49:27;;;;;;;9.93;8.70;;;;;;;10.99;77.38;99579.84;1625022;84;27293;-75
2021/05/17 03:51:54;;;;;;;12.47;9.45;;;;;;;11.17;77.20;99582.65;1676884;83;25754;-74
2021/05/17 03:54:21;;;;;;;9.80;8.80;;;;;;;11.41;77.48;99583.73;1685449;84;25670;-74
2021/05/17 03:56:48;;;;;;;10.82;8.25;;;;;;;11.58;77.15;99583.00;1643544;84;25715;-74
2021/05/17 03:59:17;;;;;;;11.28;9.18;;;;;;;11.57;76.45;99588.05;1620865;84;25835;-74
2021/05/17 04:01:45;;;;;;;11.00;9.80;;;;;;;11.53;76.25;99589.53;1688365;83;27548;-74
2021/05/17 04:04:13;;;;;;;12.70;10.25;;;;;;;11.55;76.51;99591.98;1671661;85;25899;-74
2021/05/17 04:06:51;;;;;;;13.20;10.08;;;;;;;11.60;76.77;99592.99;1629028;85;25778;-75
2021/05/17 04:14:46;;;;;;;12.65;10.10;;;;;;;11.76;77.00;99592.19;1652553;85;27600;-73
2021/05/17 04:17:13;;;;;;;13.40;10.18;;;;;;;11.81;76.96;99597.19;1657207;84;25900;-75
2021/05/17 04:19:40;;;;;;;11.80;10.08;;;;;;;11.84;76.82;99593.25;1608070;86;25704;-74
2021/05/17 04:22:07;;;;;;;11.33;10.15;;;;;;;11.88;76.85;99594.45;1673950;83;26398;-74
2021/05/17 04:24:34;;;;;;;14.95;10.23;;;;;;;11.92;76.98;99600.50;1674640;85;25651;-74
2021/05/17 04:27:01;;;;;;;14.38;10.30;;;;;;;11.97;76.90;99602.53;1589069;85;28060;-74
2021/05/17 04:29:28;;;;;;;14.90;11.73;;;;;;;12.02;77.01;99599.99;1623906;84;26290;-73
2021/05/17 04:31:55;;;;;;;14.47;10.82;;;;;;;12.05;76.94;99596.37;1674540;85;25671;-75
2021/05/17 04:34:22;;;;;;;13.83;11.40;;;;;;;12.09;76.89;99602.93;1676284;84;25877;-74
2021/05/17 04:36:49;;;;;;;12.37;9.88;;;;;;;12.13;76.95;99601.96;1622296;85;25347;-74
2021/05/17 04:39:16;;;;;;;13.32;10.65;;;;;;;12.17;77.06;99605.33;1682380;84;27549;-75
2021/05/17 04:41:43;;;;;;;15.45;11.28;;;;;;;12.22;77.32;99605.50;1648783;85;25930;-74
2021/05/17 04:44:11;;;;;;;13.88;12.10;;;;;;;12.31;77.40;99607.38;1631096;85;26155;-75
2021/05/17 04:46:38;;;;;;;13.10;11.10;;;;;;;12.35;77.19;99613.94;1645783;85;26780;-73
2021/05/17 04:49:05;;;;;;;12.03;10.82;;;;;;;12.42;77.53;99612.53;1684383;84;25807;-74
2021/05/17 04:51:32;;;;;;;13.00;10.95;;;;;;;12.49;77.69;99611.95;1653468;85;27300;-74
2021/05/17 04:53:59;;;;;;;12.98;11.40;;;;;;;12.57;77.49;99607.63;1643485;84;25699;-74
2021/05/17 04:56:26;;;;;;;13.85;10.72;;;;;;;12.62;77.24;99611.27;1658877;84;25613;-74
2021/05/17 04:58:53;;;;;;;14.78;11.65;;;;;;;12.70;77.35;99605.59;1655995;84;25927;-74
2021/05/17 05:01:20;;;;;;;14.93;11.38;;;;;;;12.78;77.77;99608.00;1661063;84;25726;-75
2021/05/17 05:03:47;;;;;;;14.58;12.50;;;;;;;12.87;77.57;99607.97;1664349;84;27613;-74
2021/05/17 05:06:14;;;;;;;15.48;11.35;;;;;;;12.96;77.34;99604.45;1642411;84;25736;-74
2021/05/17 05:08:41;;;;;;;13.18;10.98;;;;;;;13.05;77.65;99612.54;1691694;84;25755;-74
2021/05/17 05:11:08;;;;;;;13.85;11.30;;;;;;;13.17;77.69;99607.23;1652149;85;26611;-73
2021/05/17 05:13:35;;;;;;;12.98;11.28;;;;;;;13.26;77.50;99605.88;1660730;84;26572;-74
2021/05/17 05:16:03;;;;;;;13.55;11.22;;;;;;;13.34;77.57;99606.38;1649078;83;27509;-73
2021/05/17 05:18:30;;;;;;;13.10;11.55;;;;;;;13.41;77.01;99604.38;1691979;84;26357;-74
2021/05/17 05:20:57;;;;;;;14.53;11.78;;;;;;;13.50;77.05;99604.36;1658254;84;25686;-73
2021/05/17 05:23:24;;;;;;;17.27;12.28;;;;;;;13.59;76.83;99607.55;1635289;84;26406;-74
2021/05/17 05:28:46;;;;;;;16.05;12.18;;;;;;;13.72;76.81;99610.03;1686883;84;27390;-74
2021/05/17 05:31:10;;;;;;;12.15;10.85;;;;;;;13.79;76.99;99608.87;1654280;84;26562;-74
2021/05/17 05:33:31;;;;;;;12.28;10.98;;;;;;;13.89;76.92;99608.31;1637231;84;25728;-74
2021/05/17 05:35:59;;;;;;;14.33;12.03;;;;;;;13.99;76.97;99603.69;1625769;85;26470;-73
2021/05/17 05:38:26;;;;;;;13.38;11.22;;;;;;;14.09;76.70;99594.52;1685174;84;25709;-73
2021/05/17 05:40:53;;;;;;;16.15;11.70;;;;;;;14.20;76.73;99585.63;1668748;85;26909;-74
2021/05/17 05:43:20;;;;;;;15.50;10.93;;;;;;;14.27;76.03;99570.97;1646519;84;25836;-73
2021/05/17 05:45:50;;;;;;;13.50;11.50;;;;;;;14.36;76.20;99560.69;1645340;84;25709;-75
2021/05/17 05:48:17;;;;;;;12.03;10.35;;;;;;;14.46;75.85;99555.52;1686679;84;25901;-73
2021/05/17 05:50:49;;;;;;;15.80;10.75;;;;;;;14.58;76.49;99552.29;1635647;85;26501;-74
2021/05/17 05:53:15;;;;;;;15.48;11.85;;;;;;;14.71;75.84;99562.81;1644701;84;27552;-75
2021/05/17 05:55:43;;;;;;;12.65;10.43;;;;;;;14.82;75.52;99572.72;1627747;85;25713;-74
2021/05/17 05:58:10;;;;;;;11.33;9.68;;;;;;;14.89;75.29;99580.14;1683481;84;25834;-74
2021/05/17 06:00:38;;;;;;;14.25;10.55;;;;;;;14.99;75.34;99584.94;1680222;84;25944;-74
2021/05/17 06:03:06;;;;;;;11.10;9.85;;;;;;;15.10;74.54;99583.53;1647992;83;25880;-74
2021/05/17 06:05:33;;;;;;;11.80;9.55;;;;;;;15.17;74.57;99580.69;1660379;85;27513;-75
2021/05/17 06:08:01;;;;;;;11.97;9.13;;;;;;;15.25;74.21;99583.82;1683118;82;25537;-75
2021/05/17 06:10:29;;;;;;;12.20;9.30;;;;;;;15.33;73.82;99581.28;1666883;83;25820;-74
2021/05/17 06:12:58;;;;;;;10.20;8.90;;;;;;;15.41;73.66;99579.01;1637116;85;25915;-74
2021/05/17 06:15:26;;;;;;;15.10;10.30;;;;;;;15.49;73.65;99584.56;1662715;84;25287;-75
2021/05/17 06:17:54;;;;;;;11.97;9.00;;;;;;;15.59;73.41;99585.28;1674102;85;27988;-75
2021/05/17 06:20:22;;;;;;;15.35;9.83;;;;;;;15.68;73.54;99588.67;1662645;84;25744;-75
2021/05/17 06:22:50;;;;;;;14.28;9.75;;;;;;;15.78;73.46;99580.73;1617412;85;26173;-74
2021/05/17 06:25:18;;;;;;;11.48;9.25;;;;;;;15.87;72.74;99573.04;1644389;83;26330;-74
2021/05/17 06:27:47;;;;;;;10.95;9.23;;;;;;;15.94;72.75;99571.83;1689751;84;25828;-74
2021/05/17 06:30:16;;;;;;;11.50;9.18;;;;;;;16.03;72.35;99579.81;1680696;84;27366;-75
2021/05/17 06:32:45;;;;;;;11.12;9.50;;;;;;;16.11;72.17;99580.74;1638476;84;25865;-74
2021/05/17 06:35:15;;;;;;;10.95;9.00;;;;;;;16.16;72.16;99576.77;1661721;84;26518;-76
2021/05/17 06:37:42;;;;;;;10.93;8.75;;;;;;;16.29;72.33;99574.25;1672223;85;25798;-74
2021/05/17 06:40:11;;;;;;;9.83;8.15;;;;;;;16.36;72.13;99572.17;1657857;84;26464;-75
2021/05/17 06:42:39;;;;;;;9.70;8.53;;;;;;;16.47;71.31;99564.49;1602549;85;28001;-76
2021/05/17 06:45:08;;;;;;;13.18;9.65;;;;;;;16.52;71.80;99570.02;1644242;82;25872;-74
2021/05/17 06:47:36;;;;;;;11.30;9.20;;;;;;;16.62;71.83;99570.14;1674590;83;25683;-74
2021/05/17 06:50:07;;;;;;;11.20;8.73;;;;;;;16.72;71.21;99568.91;1646614;84;25991;-76
2021/05/17 06:52:35;;;;;;;11.03;8.78;;;;;;;16.80;71.51;99568.48;1650394;85;25768;-74
2021/05/17 06:55:10;;;;;;;11.55;8.13;;;;;;;16.87;70.62;99566.95;1653766;84;27964;-74
2021/05/17 06:57:50;;;;;;;10.72;7.72;;;;;;;16.93;71.00;99561.88;1664498;84;25842;-74
2021/05/17 07:00:07;;;;;;;9.23;7.37;;;;;;;17.03;70.94;99567.39;1661047;83;26145;-75
2021/05/17 07:02:36;;;;;;;10.93;6.92;;;;;;;17.15;70.43;99561.30;1624258;84;26183;-74
2021/05/17 07:05:04;;;;;;;10.80;6.75;;;;;;;17.24;70.71;99554.36;1660092;83;25836;-75
2021/05/17 07:12:55;;;;;;;8.38;5.25;;;;;;;17.50;68.97;99554.92;1647442;85;25811;-74
2021/05/17 07:15:22;;;;;;;9.43;5.25;;;;;;;17.58;67.74;99559.87;1647443;85;26582;-75
2021/05/17 07:17:49;;;;;;;9.05;5.65;;;;;;;17.66;67.92;99553.18;1696028;84;25715;-75
2021/05/17 07:20:21;;;;;;;6.45;5.37;;;;;;;17.76;67.57;99550.55;1672536;84;27957;-75
2021/05/17 07:25:30;;;;;;;6.10;4.90;;;;;;;17.91;66.93;99558.80;1664635;83;25771;-74
2021/05/17 07:27:57;;;;;;;8.33;5.90;;;;;;;18.00;66.81;99547.77;1687662;83;25735;-75
2021/05/17 07:30:26;;;;;;;7.08;5.30;;;;;;;18.06;65.97;99551.31;1649587;85;25853;-74
2021/05/17 07:32:53;;;;;;;8.63;5.15;;;;;;;18.11;65.56;99549.44;1604670;85;27531;-75
2021/05/17 07:35:20;;;;;;;8.48;5.08;;;;;;;18.17;65.41;99545.71;1639194;84;25641;-74
2021/05/17 07:37:47;;;;;;;6.62;4.40;;;;;;;18.26;65.59;99549.54;1681129;84;26405;-75
2021/05/17 07:40:14;;;;;;;5.55;3.90;;;;;;;18.35;65.09;99543.08;1618336;85;26455;-74
2021/05/17 07:42:41;;;;;;;5.55;4.10;;;;;;;18.41;65.46;99540.14;1628393;85;25688;-74
2021/05/17 07:45:09;;;;;;;6.00;4.87;;;;;;;18.48;64.42;99544.00;1639435;85;27454;-75
2021/05/17 07:47:36;;;;;;;7.95;4.28;;;;;;;18.56;63.86;99544.06;1679787;84;25747;-75
2021/05/17 07:50:04;;;;;;;7.95;3.70;;;;;;;18.63;63.59;99547.33;1656306;84;25694;-75
2021/05/17 07:52:31;;;;;;;5.37;3.75;;;;;;;18.71;63.50;99552.27;1640580;83;25622;-76
2021/05/17 07:54:58;;;;;;;6.25;4.08;;;;;;;18.80;63.52;99554.19;1641494;85;25724;-75
2021/05/17 07:57:25;;;;;;;5.60;3.25;;;;;;;18.90;62.76;99549.36;1684640;85;28137;-74
2021/05/17 07:59:54;;;;;;;5.47;3.83;;;;;;;18.98;62.73;99546.12;1674001;85;25778;-74
2021/05/17 08:02:21;;;;;;;5.62;3.25;;;;;;;19.08;62.44;99550.21;1622160;85;25726;-75
2021/05/17 08:04:51;;;;;;;4.90;3.37;;;;;;;19.13;61.39;99548.34;1662127;84;26422;-74
2021/05/17 08:07:21;;;;;;;8.53;4.12;;;;;;;19.20;61.56;99542.66;1683734;83;26425;-75
2021/05/17 08:09:51;;;;;;;4.30;3.42;;;;;;;19.30;61.52;99544.03;1647036;85;28033;-75
2021/05/17 08:12:19;;;;;;;6.28;3.47;;;;;;;19.32;60.65;99545.11;1636042;84;25728;-74
2021/05/17 08:14:46;;;;;;;4.95;3.33;;;;;;;19.38;60.24;99540.81;1683964;84;26271;-74
2021/05/17 08:17:13;;;;;;;5.60;3.20;;;;;;;19.36;59.72;99539.44;1684439;84;25929;-75
2021/05/17 08:19:40;;;;;;;6.47;3.10;;;;;;;19.27;60.07;99537.77;1629213;84;25774;-75
2021/05/17 08:22:07;;;;;;;5.15;2.77;;;;;;;19.20;60.20;99536.66;1633642;85;27532;-74
2021/05/17 08:24:34;;;;;;;4.85;2.27;;;;;;;19.14;59.67;99536.39;1658231;84;25726;-75
2021/05/17 08:27:05;;;;;;;4.80;2.10;;;;;;;19.17;58.85;99536.40;1657599;85;25671;-74
2021/05/17 08:29:33;;;;;;;4.28;2.02;;;;;;;19.29;57.92;99534.23;1657251;85;25788;-75
2021/05/17 08:32:02;;;;;;;6.00;2.08;;;;;;;19.42;57.01;99537.03;1636517;84;25746;-75
2021/05/17 08:34:30;;;;;;;3.17;2.20;;;;;;;19.53;56.33;99525.06;1684262;84;28112;-75
2021/05/17 08:36:57;;;;;;;4.25;1.95;;;;;;;19.63;55.85;99523.17;1677080;83;26306;-74
2021/05/17 08:39:28;;;;;;;5.28;1.90;;;;;;;19.72;56.59;99525.62;1635235;84;25724;-75
2021/05/17 08:41:58;;;;;;;4.37;1.85;;;;;;;19.83;55.35;99520.99;1655852;85;26257;-75
2021/05/17 08:44:28;;;;;;;2.65;1.80;;;;;;;19.92;55.43;99514.75;1684664;84;25882;-75
2021/05/17 08:46:55;;;;;;;5.10;2.30;;;;;;;20.04;54.74;99513.66;1681327;84;27638;-75
2021/05/17 08:49:23;;;;;;;2.22;1.62;;;;;;;20.14;55.57;99513.63;1637007;84;25831;-74
2021/05/17 08:51:50;;;;;;;5.47;2.33;;;;;;;20.26;55.94;99518.23;1638974;84;25706;-75
2021/05/17 08:54:17;;;;;;;3.20;1.90;;;;;;;20.32;54.78;99513.05;1684293;84;25755;-75
2021/05/17 08:56:47;;;;;;;5.87;1.80;;;;;;;20.41;54.69;99519.02;1681767;84;26503;-75
2021/05/17 08:59:16;;;;;;;4.05;1.95;;;;;;;20.49;54.67;99517.62;1623157;84;27611;-75
2021/05/17 09:01:43;;;;;;;5.15;1.67;;;;;;;20.50;53.88;99521.45;1631097;86;25781;-75
2021/05/17 09:04:16;;;;;;;2.52;1.70;;;;;;;20.55;53.51;99520.62;1676457;83;25949;-76
2021/05/17 09:06:48;;;;;;;5.78;2.40;;;;;;;20.59;52.92;99519.75;1680020;84;26369;-75
2021/05/17 09:09:32;;;;;;;2.30;1.67;;;;;;;20.55;53.16;99512.45;1656194;84;25747;-75
2021/05/17 09:12:03;;;;;;;4.58;1.70;;;;;;;20.51;52.48;99507.27;1630497;86;27606;-75
2021/05/17 09:14:32;;;;;;;3.60;1.65;;;;;;;20.53;52.20;99505.13;1660917;84;25722;-76
2021/05/17 09:17:08;;;;;;;5.15;1.70;;;;;;;20.61;51.96;99498.55;1633998;87;25530;-75
2021/05/17 09:19:42;;;;;;;3.27;1.57;;;;;;;20.73;52.60;99499.03;1641003;86;26813;-76
2021/05/17 09:22:16;;;;;;;3.60;1.40;;;;;;;20.87;52.63;99497.86;1638877;83;26389;-76
2021/05/17 09:24:50;;;;;;;4.03;1.65;;;;;;;20.98;52.59;99506.81;1675798;84;27670;-75
2021/05/17 09:27:29;;;;;;;3.45;1.62;;;;;;;20.99;51.67;99506.52;1634919;87;25723;-75
2021/05/17 09:30:02;;;;;;;5.30;1.57;;;;;;;20.89;51.33;99504.41;1594860;87;25677;-75
2021/05/17 09:32:32;;;;;;;5.78;1.67;;;;;;;20.88;51.34;99506.30;1636424;84;26283;-75
2021/05/17 09:35:06;;;;;;;3.93;1.97;;;;;;;20.90;51.96;99506.02;1681639;84;25670;-75
2021/05/17 09:37:48;;;;;;;3.33;1.80;;;;;;;20.96;51.27;99508.97;1682863;84;28096;-76
2021/05/17 09:40:26;;;;;;;3.35;1.82;;;;;;;20.95;50.14;99509.55;1653490;84;25678;-75
2021/05/17 09:43:11;;;;;;;3.95;1.85;;;;;;;20.79;50.55;99506.61;1635204;84;25849;-75
2021/05/17 09:45:45;;;;;;;3.92;1.82;;;;;;;20.70;50.64;99504.20;1638872;84;25748;-75
2021/05/17 09:48:18;;;;;;;3.27;1.40;;;;;;;20.70;51.29;99505.02;1629582;87;25746;-76
2021/05/17 09:51:14;;;;;;;4.35;1.80;;;;;;;20.86;51.48;99501.69;1638180;85;27655;-75
2021/05/17 09:53:45;;;;;;;4.47;1.60;;;;;;;21.02;50.59;99498.34;1563752;87;25936;-75
2021/05/17 09:56:21;;;;;;;3.90;1.10;;;;;;;21.01;49.79;99493.44;1646413;85;25643;-76
2021/05/17 09:58:57;;;;;;;5.67;2.37;;;;;;;20.95;49.98;99493.20;1685940;84;25957;-75
2021/05/17 10:01:29;;;;;;;2.70;1.55;;;;;;;20.92;49.40;99496.48;1683457;84;25719;-75
2021/05/17 10:04:06;;;;;;;4.00;1.62;;;;;;;20.89;49.91;99497.06;1611282;85;27361;-75
2021/05/17 10:06:33;;;;;;;2.87;1.57;;;;;;;20.86;50.02;99500.87;1685117;82;25650;-75
2021/05/17 10:09:00;;;;;;;5.12;1.47;;;;;;;20.81;50.00;99503.64;1682090;84;25684;-76
2021/05/17 10:11:28;;;;;;;2.75;1.57;;;;;;;20.79;50.47;99494.37;1630236;85;25978;-75
2021/05/17 10:13:56;;;;;;;2.22;1.62;;;;;;;20.76;50.13;99500.39;1654861;84;25994;-75
2021/05/17 10:16:24;;;;;;;2.75;1.20;;;;;;;20.70;49.99;99505.02;1673586;85;28227;-75
2021/05/17 10:18:51;;;;;;;2.52;1.30;;;;;;;20.64;50.20;99507.50;1667205;85;25588;-75
2021/05/17 10:21:23;;;;;;;3.90;1.95;;;;;;;20.65;50.47;99506.97;1620617;85;25650;-75
2021/05/17 10:23:51;;;;;;;6.72;1.62;;;;;;;20.62;50.80;99500.70;1644705;84;25734;-76
2021/05/17 10:26:25;;;;;;;4.50;1.50;;;;;;;20.64;50.96;99495.80;1678621;84;25881;-75
2021/05/17 10:29:00;;;;;;;2.58;1.30;;;;;;;20.68;51.21;99496.33;1680134;84;27482;-74
2021/05/17 10:31:29;;;;;;;2.20;1.52;;;;;;;20.70;51.02;99491.41;1667836;84;25256;-74
2021/05/17 10:34:09;;;;;;;4.00;1.57;;;;;;;20.73;51.10;99490.87;1635446;83;25723;-75
2021/05/17 10:37:01;;;;;;;2.98;1.40;;;;;;;20.69;50.21;99491.16;1636860;85;26329;-75
2021/05/17 10:39:37;;;;;;;3.00;1.37;;;;;;;20.68;50.31;99490.88;1669485;85;25811;-75
2021/05/17 10:48:27;;;;;;;2.55;1.60;;;;;;;20.62;48.75;99492.55;1684162;84;26411;-75
2021/05/17 10:51:19;;;;;;;2.20;1.62;;;;;;;20.58;48.95;99489.58;1667669;85;26191;-75
2021/05/17 10:53:54;;;;;;;2.20;1.65;;;;;;;20.58;49.33;99491.47;1683729;84;26448;-75
2021/05/17 10:56:57;;;;;;;1.87;1.10;;;;;;;20.62;49.03;99493.91;1605796;86;27974;-75
2021/05/17 11:02:39;;;;;;;4.65;1.77;;;;;;;20.56;48.32;99491.77;1662215;85;25647;-75
2021/05/17 11:05:21;;;;;;;4.58;1.60;;;;;;;20.56;48.42;99485.50;1618079;86;25871;-75
2021/05/17 11:07:51;;;;;;;3.50;1.70;;;;;;;20.60;48.57;99484.67;1601338;86;25785;-75
2021/05/17 11:10:25;;;;;;;3.58;2.15;;;;;;;20.66;47.35;99487.62;1659435;84;28419;-75
2021/05/17 11:13:06;;;;;;;2.92;1.27;;;;;;;20.67;47.55;99477.02;1664809;85;25636;-76
2021/05/17 11:16:06;;;;;;;2.55;1.80;;;;;;;20.71;47.69;99479.98;1664260;85;25306;-75
2021/05/17 11:18:51;;;;;;;4.12;2.17;;;;;;;20.77;47.74;99474.78;1617781;85;25770;-75
2021/05/17 11:21:27;;;;;;;1.92;1.45;;;;;;;20.85;48.70;99479.62;1663050;85;25753;-75
2021/05/17 11:24:05;;;;;;;3.27;1.47;;;;;;;20.96;48.09;99482.57;1664971;85;27444;-75
2021/05/17 11:26:49;;;;;;;2.45;1.52;;;;;;;21.04;47.77;99484.72;1642213;85;25755;-75
2021/05/17 11:29:31;;;;;;;3.50;2.08;;;;;;;21.05;47.53;99483.64;1619114;85;25417;-75
2021/05/17 11:32:12;;;;;;;4.42;1.70;;;;;;;21.06;46.77;99478.48;1661320;85;26420;-75
2021/05/17 11:35:00;;;;;;;3.62;1.62;;;;;;;21.02;48.22;99477.35;1639159;86;25743;-75
2021/05/17 11:37:28;;;;;;;3.55;1.55;;;;;;;21.00;48.06;99477.39;1620033;85;27579;-75
2021/05/17 11:39:54;;;;;;;6.95;2.50;;;;;;;20.96;48.35;99477.13;1618063;85;25808;-76
2021/05/17 11:42:21;;;;;;;6.15;1.85;;;;;;;21.00;48.77;99473.31;1664909;85;25751;-76
2021/05/17 11:44:55;;;;;;;3.72;1.47;;;;;;;20.97;48.00;99476.58;1665060;85;25973;-76
2021/05/17 11:47:31;;;;;;;2.67;1.70;;;;;;;20.87;48.28;99475.29;1643384;85;26354;-76
2021/05/17 11:49:58;;;;;;;2.40;1.50;;;;;;;20.88;48.91;99476.90;1616312;85;27391;-76
2021/05/17 11:52:28;;;;;;;3.08;1.70;;;;;;;20.87;48.43;99480.16;1641615;85;25903;-76
2021/05/17 11:54:59;;;;;;;3.43;1.87;;;;;;;20.75;48.62;99479.16;1592620;85;31607;-80
2021/05/17 11:57:34;;;;;;;3.95;1.85;;;;;;;20.69;48.30;99487.08;1661667;82;25798;-75
2021/05/17 12:00:06;;;;;;;3.27;2.33;;;;;;;20.60;48.45;99481.13;1664156;84;26404;-77
2021/05/17 12:02:37;;;;;;;2.25;1.60;;;;;;;20.52;48.31;99477.09;1660336;84;27267;-76
2021/05/17 12:05:07;;;;;;;4.45;2.15;;;;;;;20.46;48.37;99486.91;1631828;85;26509;-75
2021/05/17 12:07:51;;;;;;;4.55;1.90;;;;;;;20.42;49.33;99483.91;1659898;84;25647;-76
2021/05/17 12:10:21;;;;;;;7.62;2.62;;;;;;;20.38;49.77;99488.28;1670157;85;25762;-75
2021/05/17 12:12:52;;;;;;;5.47;1.82;;;;;;;20.35;49.42;99488.03;1659306;84;25981;-77